Time;durP1;ratioP1;P1;durP2;ratioP2;P2;SDS_P1;SDS_P2;PMS_P1;PMS_P2;Temp;Humidity;BMP_temperature;BMP_pressure;BME280_temperature;BME280_humidity;BME280_pressure;Samples;Min_cycle;Max_cycle;Signal;HPM_P1;HPM_P2
2023/05/08 00:00:37;;;;;;;32.85;28.48;;;14.90;99.90;;;;;;4990196;28;20038;-73
2023/05/08 00:03:03;;;;;;;34.65;27.88;;;14.90;99.90;;;;;;4977450;28;20031;-73
2023/05/08 00:05:29;;;;;;;29.88;26.75;;;14.90;99.90;;;;;;4985020;28;20031;-72
2023/05/08 00:08:00;;;;;;;30.38;27.08;;;14.80;99.90;;;;;;4991531;28;20026;-72
2023/05/08 00:10:26;;;;;;;33.63;27.17;;;14.90;99.90;;;;;;4976693;28;20058;-73
2023/05/08 00:12:52;;;;;;;32.63;28.20;;;14.80;99.90;;;;;;4974132;28;20062;-73
2023/05/08 00:15:17;;;;;;;27.35;24.17;;;14.80;99.90;;;;;;4989735;28;20105;-73
2023/05/08 00:17:43;;;;;;;30.48;23.48;;;14.80;99.90;;;;;;4979506;28;20023;-73
2023/05/08 00:20:09;;;;;;;25.75;22.95;;;14.80;99.90;;;;;;4961795;28;20058;-73
2023/05/08 00:22:35;;;;;;;31.38;25.35;;;14.70;99.90;;;;;;4983900;28;20022;-73
2023/05/08 00:25:00;;;;;;;31.10;26.60;;;14.70;99.90;;;;;;4975932;28;20023;-73
2023/05/08 00:27:26;;;;;;;30.90;27.52;;;14.60;99.90;;;;;;4979931;28;20031;-72
2023/05/08 00:29:51;;;;;;;34.60;28.63;;;14.60;99.90;;;;;;4981522;28;20058;-73
2023/05/08 00:32:17;;;;;;;36.13;28.63;;;14.60;99.90;;;;;;4976637;28;20507;-72
2023/05/08 00:34:42;;;;;;;32.78;26.25;;;14.60;99.90;;;;;;4972281;28;20534;-72
2023/05/08 00:37:08;;;;;;;31.85;24.77;;;14.60;99.90;;;;;;4974430;28;20030;-73
2023/05/08 00:39:33;;;;;;;28.25;23.23;;;14.60;99.90;;;;;;4972795;28;20033;-73
2023/05/08 00:41:59;;;;;;;34.63;26.17;;;14.60;99.90;;;;;;4977018;28;20039;-72
2023/05/08 00:44:25;;;;;;;30.52;25.67;;;14.60;99.90;;;;;;4979959;28;20486;-72
2023/05/08 00:46:50;;;;;;;32.03;26.95;;;14.60;99.90;;;;;;4992595;28;20109;-73
2023/05/08 00:49:16;;;;;;;33.50;26.85;;;14.60;99.90;;;;;;4983827;28;20018;-72
2023/05/08 00:51:46;;;;;;;35.58;26.67;;;14.60;99.90;;;;;;4984161;28;20030;-72
2023/05/08 00:54:12;;;;;;;32.63;26.92;;;14.50;99.90;;;;;;4982567;28;20393;-72
2023/05/08 00:56:39;;;;;;;34.85;28.25;;;14.50;99.90;;;;;;4980691;28;20026;-73
2023/05/08 00:59:10;;;;;;;38.78;27.77;;;14.50;99.90;;;;;;4978036;28;20023;-73
2023/05/08 01:01:37;;;;;;;31.38;26.90;;;14.50;99.90;;;;;;4979668;28;20072;-72
2023/05/08 01:04:03;;;;;;;34.00;25.50;;;14.40;99.90;;;;;;4982313;28;20026;-72
2023/05/08 01:06:29;;;;;;;31.75;24.80;;;14.40;99.90;;;;;;4981790;28;20126;-72
2023/05/08 01:08:54;;;;;;;32.15;25.55;;;14.30;99.90;;;;;;4980025;28;20153;-72
2023/05/08 01:11:20;;;;;;;28.92;23.38;;;14.30;99.90;;;;;;4980282;28;20038;-73
2023/05/08 01:13:53;;;;;;;29.25;23.33;;;14.30;99.90;;;;;;4981686;28;20062;-72
2023/05/08 01:16:49;;;;;;;224.48;30.08;;;14.20;99.90;;;;;;4983922;28;20018;-73
2023/05/08 01:19:39;;;;;;;50.10;20.02;;;14.10;99.90;;;;;;4953914;28;20038;-72
2023/05/08 01:22:31;;;;;;;93.22;22.30;;;14.00;99.90;;;;;;4977562;28;20040;-72
2023/05/08 01:25:29;;;;;;;73.88;19.95;;;14.00;99.90;;;;;;4976833;28;20117;-72
2023/05/08 01:28:20;;;;;;;90.40;24.48;;;13.90;99.90;;;;;;4970012;28;20073;-73
2023/05/08 01:31:11;;;;;;;43.10;19.95;;;13.90;99.90;;;;;;4985462;28;20037;-72
2023/05/08 01:33:54;;;;;;;113.68;28.17;;;13.90;99.90;;;;;;4973413;28;20042;-72
2023/05/08 01:36:30;;;;;;;113.07;23.73;;;13.80;99.90;;;;;;4980042;28;20035;-72
2023/05/08 01:39:34;;;;;;;62.67;21.75;;;13.80;99.90;;;;;;4991678;28;20030;-72
2023/05/08 01:42:29;;;;;;;28.80;21.42;;;13.80;99.90;;;;;;4944075;28;20042;-72
2023/05/08 01:45:06;;;;;;;21.65;19.10;;;13.80;99.90;;;;;;4939840;28;20074;-72
2023/05/08 01:47:34;;;;;;;55.92;18.58;;;13.70;99.90;;;;;;4978841;28;20034;-73
2023/05/08 01:50:07;;;;;;;28.23;20.20;;;13.80;99.90;;;;;;4977719;28;20118;-72
2023/05/08 01:52:45;;;;;;;22.80;18.75;;;13.70;99.90;;;;;;4975462;28;20041;-72
2023/05/08 01:55:16;;;;;;;20.20;18.00;;;13.70;99.90;;;;;;4972139;28;20153;-73
2023/05/08 01:57:47;;;;;;;51.88;21.20;;;13.70;99.90;;;;;;4970288;28;20035;-72
2023/05/08 02:00:16;;;;;;;58.53;20.90;;;13.70;99.90;;;;;;4980139;28;20022;-72
2023/05/08 02:02:43;;;;;;;29.52;22.50;;;13.70;99.90;;;;;;4976896;28;20031;-72
2023/05/08 02:05:11;;;;;;;24.60;18.63;;;13.70;99.90;;;;;;4985838;28;20065;-73
2023/05/08 02:07:38;;;;;;;26.10;21.05;;;13.70;99.90;;;;;;4982997;28;20031;-72
2023/05/08 02:10:05;;;;;;;30.00;22.98;;;13.70;99.90;;;;;;4977799;28;20014;-73
2023/05/08 02:12:32;;;;;;;30.15;22.55;;;13.60;99.90;;;;;;4976821;28;20026;-72
2023/05/08 02:15:00;;;;;;;26.55;22.42;;;13.60;99.90;;;;;;4982255;28;20054;-73
2023/05/08 02:17:27;;;;;;;140.35;25.25;;;13.70;99.90;;;;;;4980649;28;20081;-73
2023/05/08 02:19:55;;;;;;;26.15;21.77;;;13.70;99.90;;;;;;4974373;28;20027;-73
2023/05/08 02:22:22;;;;;;;32.08;23.58;;;13.70;99.90;;;;;;4980946;28;20039;-73
2023/05/08 02:24:52;;;;;;;29.63;22.25;;;13.70;99.90;;;;;;4984755;28;20434;-73
2023/05/08 02:27:19;;;;;;;28.95;21.98;;;13.70;99.90;;;;;;4985104;28;20039;-73
2023/05/08 02:29:46;;;;;;;27.77;22.27;;;13.70;99.90;;;;;;4975158;28;20041;-73
2023/05/08 02:32:12;;;;;;;28.27;23.70;;;13.70;99.90;;;;;;4971729;28;20544;-73
2023/05/08 02:34:38;;;;;;;27.20;21.33;;;13.70;99.90;;;;;;4970873;28;20529;-73
2023/05/08 02:37:04;;;;;;;23.77;20.67;;;13.70;99.90;;;;;;4972818;28;20104;-73
2023/05/08 02:39:32;;;;;;;33.72;22.95;;;13.70;99.90;;;;;;4990265;28;20549;-73
2023/05/08 02:41:59;;;;;;;33.35;21.65;;;13.80;99.90;;;;;;4985196;28;20030;-73
2023/05/08 02:44:25;;;;;;;24.10;19.70;;;13.70;99.90;;;;;;4985712;28;20049;-73
2023/05/08 02:46:50;;;;;;;22.92;19.83;;;13.80;99.90;;;;;;4984258;28;20035;-73
2023/05/08 02:49:28;;;;;;;26.25;21.85;;;13.80;99.90;;;;;;4989563;28;20030;-73
2023/05/08 02:52:13;;;;;;;24.70;19.90;;;13.90;99.90;;;;;;4981109;28;20023;-73
2023/05/08 02:54:47;;;;;;;29.58;22.80;;;13.90;99.90;;;;;;4978992;28;20023;-73
2023/05/08 02:57:34;;;;;;;29.42;21.48;;;13.90;99.90;;;;;;4975619;28;20023;-73
2023/05/08 03:00:08;;;;;;;28.15;20.70;;;13.90;99.90;;;;;;4965422;28;20478;-73
2023/05/08 03:02:39;;;;;;;28.65;17.95;;;13.80;99.90;;;;;;4978394;28;20034;-74
2023/05/08 03:05:33;;;;;;;21.70;18.25;;;13.80;99.90;;;;;;4979320;28;20390;-73
2023/05/08 03:08:03;;;;;;;26.83;20.85;;;13.90;99.90;;;;;;4975111;28;20457;-73
2023/05/08 03:10:33;;;;;;;26.92;20.77;;;13.80;99.90;;;;;;4988430;28;20517;-73
2023/05/08 03:13:02;;;;;;;39.83;26.58;;;13.90;99.90;;;;;;4982379;28;20171;-73
2023/05/08 03:15:41;;;;;;;32.97;23.15;;;13.80;99.90;;;;;;4974467;28;20049;-73
2023/05/08 03:18:35;;;;;;;35.65;25.38;;;13.90;99.90;;;;;;4979950;28;20034;-73
2023/05/08 03:21:01;;;;;;;33.38;23.58;;;13.90;99.90;;;;;;4987226;28;20057;-73
2023/05/08 03:23:31;;;;;;;37.03;24.40;;;13.90;99.90;;;;;;4983535;28;20541;-73
2023/05/08 03:25:59;;;;;;;40.63;26.23;;;13.90;99.90;;;;;;4986095;28;20421;-73
2023/05/08 03:28:26;;;;;;;35.53;23.92;;;13.90;99.90;;;;;;4984191;28;20030;-73
2023/05/08 03:30:52;;;;;;;39.30;26.65;;;13.90;99.90;;;;;;4978236;28;20074;-73
2023/05/08 03:33:19;;;;;;;37.17;27.10;;;13.90;99.90;;;;;;4981461;28;20394;-73
2023/05/08 03:35:46;;;;;;;30.08;23.42;;;13.90;99.90;;;;;;4985735;28;20027;-73
2023/05/08 03:38:12;;;;;;;37.88;23.15;;;13.90;99.90;;;;;;4989545;28;20031;-73
2023/05/08 03:40:38;;;;;;;36.35;24.08;;;13.90;99.90;;;;;;4980488;28;20376;-73
2023/05/08 03:43:07;;;;;;;35.75;22.92;;;13.90;99.90;;;;;;4983669;28;20026;-73
2023/05/08 03:45:38;;;;;;;42.00;23.10;;;13.90;99.90;;;;;;4981951;28;20026;-73
2023/05/08 03:48:05;;;;;;;37.92;26.10;;;13.90;99.90;;;;;;4976726;28;20063;-73
2023/05/08 03:50:33;;;;;;;37.97;25.27;;;13.90;99.90;;;;;;4979281;28;20031;-73
2023/05/08 03:52:58;;;;;;;36.40;24.58;;;13.80;99.90;;;;;;4981743;28;20041;-73
2023/05/08 03:55:25;;;;;;;46.70;28.23;;;13.80;99.90;;;;;;4991840;28;20034;-73
2023/05/08 03:58:07;;;;;;;41.80;27.92;;;13.80;99.90;;;;;;4976765;28;20429;-73
2023/05/08 04:00:56;;;;;;;47.15;27.58;;;13.80;99.90;;;;;;4972243;28;20026;-73
2023/05/08 04:03:36;;;;;;;39.92;26.95;;;13.80;99.90;;;;;;4979208;28;20039;-73
2023/05/08 04:06:25;;;;;;;39.65;26.40;;;13.70;99.90;;;;;;4979512;28;20038;-73
2023/05/08 04:09:25;;;;;;;39.90;27.02;;;13.70;99.90;;;;;;4969855;28;20034;-73
2023/05/08 04:12:01;;;;;;;44.22;25.48;;;13.60;99.90;;;;;;4973378;28;20023;-73
2023/05/08 04:14:32;;;;;;;52.85;25.38;;;13.60;99.90;;;;;;4972913;28;20106;-73
2023/05/08 04:17:02;;;;;;;60.97;26.80;;;13.50;99.90;;;;;;4976243;28;20055;-73
2023/05/08 04:19:34;;;;;;;90.40;27.30;;;13.50;99.90;;;;;;4983220;28;20034;-73
2023/05/08 04:22:04;;;;;;;;;;;13.40;99.90;;;;;;4978389;28;20070;-73
2023/05/08 04:24:32;;;;;;;50.80;26.73;;;13.30;99.90;;;;;;4983863;28;19914;-73
2023/05/08 04:26:59;;;;;;;45.25;29.67;;;13.30;99.90;;;;;;4970028;28;20054;-72
2023/05/08 04:29:24;;;;;;;46.17;29.95;;;13.20;99.90;;;;;;4967235;28;20038;-73
2023/05/08 04:31:50;;;;;;;55.40;32.92;;;13.20;99.90;;;;;;4973583;28;20407;-72
2023/05/08 04:34:17;;;;;;;51.45;32.25;;;13.20;99.90;;;;;;4973805;28;20019;-73
2023/05/08 04:36:42;;;;;;;48.45;32.60;;;13.20;99.90;;;;;;4957029;28;20023;-72
2023/05/08 04:39:08;;;;;;;89.57;30.33;;;13.20;99.90;;;;;;4972207;28;20498;-73
2023/05/08 04:41:34;;;;;;;43.80;30.55;;;13.20;99.90;;;;;;4972311;28;20086;-73
2023/05/08 04:44:00;;;;;;;66.90;28.30;;;13.20;99.90;;;;;;4973085;28;20054;-73
2023/05/08 04:46:26;;;;;;;61.85;35.58;;;13.10;99.90;;;;;;4973116;28;20041;-73
2023/05/08 04:48:52;;;;;;;57.30;34.35;;;13.10;99.90;;;;;;4967894;28;20020;-73
2023/05/08 04:51:17;;;;;;;59.30;33.13;;;13.10;99.90;;;;;;4954484;28;20027;-73
2023/05/08 04:53:43;;;;;;;51.30;33.13;;;13.10;99.90;;;;;;4963025;28;20077;-73
2023/05/08 04:56:08;;;;;;;49.78;30.60;;;13.10;99.90;;;;;;4966708;28;20034;-72
2023/05/08 04:58:34;;;;;;;42.97;27.92;;;13.10;99.90;;;;;;4978994;28;20030;-71
2023/05/08 05:01:03;;;;;;;40.00;28.13;;;13.20;99.90;;;;;;4978054;28;20065;-71
2023/05/08 05:03:29;;;;;;;46.75;25.63;;;13.20;99.90;;;;;;4970637;28;20479;-72
2023/05/08 05:05:59;;;;;;;42.35;26.50;;;13.10;99.90;;;;;;4979770;28;20077;-71
2023/05/08 05:08:25;;;;;;;45.22;25.73;;;13.10;99.90;;;;;;4972846;28;20031;-71
2023/05/08 05:10:51;;;;;;;40.42;27.55;;;13.10;99.90;;;;;;4972924;28;20033;-72
2023/05/08 05:13:17;;;;;;;38.08;24.15;;;13.20;99.90;;;;;;4972881;28;20023;-71
2023/05/08 05:15:42;;;;;;;53.20;33.95;;;13.20;99.90;;;;;;4972018;28;20030;-72
2023/05/08 05:18:08;;;;;;;41.58;28.77;;;13.20;99.90;;;;;;4967059;28;20027;-71
2023/05/08 05:20:34;;;;;;;43.22;30.08;;;13.30;99.90;;;;;;4971124;28;20051;-72
2023/05/08 05:22:59;;;;;;;49.38;32.47;;;13.30;99.90;;;;;;4975175;28;20107;-71
2023/05/08 05:25:25;;;;;;;34.95;26.15;;;13.40;99.90;;;;;;4963928;28;20031;-71
2023/05/08 05:27:50;;;;;;;53.35;34.28;;;13.50;99.90;;;;;;4967716;28;20106;-71
2023/05/08 05:30:16;;;;;;;45.65;32.03;;;13.60;99.90;;;;;;4945875;28;20078;-73
2023/05/08 05:32:42;;;;;;;42.13;30.90;;;13.70;99.90;;;;;;4958579;28;20069;-73
2023/05/08 05:35:08;;;;;;;42.15;31.70;;;13.90;99.90;;;;;;4969199;28;20041;-73
2023/05/08 05:37:34;;;;;;;43.95;32.70;;;14.10;99.90;;;;;;4971018;28;20031;-73
2023/05/08 05:40:00;;;;;;;45.20;33.80;;;14.30;99.90;;;;;;4970514;28;20110;-72
2023/05/08 05:42:25;;;;;;;45.03;33.55;;;14.40;99.90;;;;;;4970688;28;20042;-73
2023/05/08 05:44:51;;;;;;;45.85;32.33;;;14.60;99.90;;;;;;4973063;28;20563;-72
2023/05/08 05:47:16;;;;;;;48.67;32.92;;;14.70;99.90;;;;;;4971755;28;20514;-72
2023/05/08 05:49:45;;;;;;;43.53;30.67;;;14.90;99.90;;;;;;4970656;28;20447;-71
2023/05/08 05:52:12;;;;;;;43.40;30.67;;;15.00;99.90;;;;;;4954322;28;20030;-73
2023/05/08 05:54:38;;;;;;;51.65;34.40;;;15.20;99.90;;;;;;4965742;28;20122;-72
2023/05/08 05:57:04;;;;;;;46.30;33.17;;;15.30;99.90;;;;;;4953795;28;20435;-72
2023/05/08 05:59:30;;;;;;;49.72;35.80;;;15.40;99.90;;;;;;4974813;28;20034;-72
2023/05/08 06:01:55;;;;;;;50.42;35.75;;;15.60;99.90;;;;;;4982102;28;20039;-72
2023/05/08 06:04:21;;;;;;;51.53;36.08;;;15.80;99.90;;;;;;4968700;28;20395;-72
2023/05/08 06:06:46;;;;;;;47.20;35.78;;;15.80;99.90;;;;;;4972779;28;20039;-72
2023/05/08 06:09:12;;;;;;;45.65;34.65;;;15.90;99.90;;;;;;4958937;28;21189;-72
2023/05/08 06:11:37;;;;;;;46.42;35.50;;;16.00;99.90;;;;;;4958548;28;20394;-72
2023/05/08 06:14:03;;;;;;;48.50;35.80;;;16.00;99.90;;;;;;4986221;28;20475;-72
2023/05/08 06:16:29;;;;;;;52.28;36.88;;;16.10;99.90;;;;;;4978990;28;20026;-72
2023/05/08 06:18:55;;;;;;;45.33;35.08;;;16.10;99.90;;;;;;4974194;28;20053;-72
2023/05/08 06:21:20;;;;;;;46.65;34.95;;;16.10;99.90;;;;;;4979339;28;20590;-72
2023/05/08 06:23:46;;;;;;;48.50;36.67;;;16.20;99.90;;;;;;4983527;28;20101;-72
2023/05/08 06:26:11;;;;;;;49.03;37.33;;;16.20;99.90;;;;;;4972100;28;20053;-72
2023/05/08 06:28:37;;;;;;;45.20;34.17;;;16.20;99.90;;;;;;4984001;28;20023;-72
2023/05/08 06:31:03;;;;;;;46.47;33.42;;;16.20;99.90;;;;;;4963003;28;20165;-72
2023/05/08 06:33:28;;;;;;;49.58;35.95;;;16.20;99.90;;;;;;4969796;28;20029;-72
2023/05/08 06:35:54;;;;;;;48.35;35.60;;;16.20;99.90;;;;;;4979384;28;20038;-72
2023/05/08 06:38:20;;;;;;;50.85;36.25;;;16.20;99.90;;;;;;4983505;28;20026;-72
2023/05/08 06:40:46;;;;;;;47.03;35.75;;;16.30;99.90;;;;;;4968945;28;20047;-72
2023/05/08 06:43:12;;;;;;;48.00;34.90;;;16.30;99.90;;;;;;4972537;28;20023;-72
2023/05/08 06:45:38;;;;;;;45.63;34.92;;;16.40;99.90;;;;;;4974666;28;20418;-72
2023/05/08 06:48:05;;;;;;;47.35;36.70;;;16.40;99.90;;;;;;4974265;28;20030;-73
2023/05/08 06:50:30;;;;;;;53.17;37.83;;;16.50;99.90;;;;;;4963583;28;20022;-72
2023/05/08 06:52:56;;;;;;;48.38;35.90;;;16.50;99.90;;;;;;4986976;28;20031;-72
2023/05/08 06:55:21;;;;;;;48.78;37.20;;;16.60;99.90;;;;;;4976718;28;20050;-72
2023/05/08 06:57:47;;;;;;;46.97;36.20;;;16.70;99.90;;;;;;4981615;28;20611;-72
2023/05/08 07:00:13;;;;;;;45.58;36.13;;;16.90;99.90;;;;;;4975241;28;20023;-72
2023/05/08 07:02:38;;;;;;;48.65;36.05;;;17.00;99.90;;;;;;4978131;28;20054;-72
2023/05/08 07:05:04;;;;;;;47.85;36.08;;;17.20;99.90;;;;;;4971546;28;20436;-73
2023/05/08 07:07:30;;;;;;;47.13;36.10;;;17.30;99.90;;;;;;4969493;28;20103;-72
2023/05/08 07:09:55;;;;;;;44.17;34.50;;;17.40;99.90;;;;;;4968621;28;20109;-72
2023/05/08 07:12:21;;;;;;;43.70;34.08;;;17.60;99.90;;;;;;4976779;28;20026;-72
2023/05/08 07:14:47;;;;;;;46.65;36.58;;;17.70;99.90;;;;;;4977397;28;20023;-72
2023/05/08 07:17:12;;;;;;;43.63;34.92;;;17.80;99.90;;;;;;4981781;28;20039;-72
2023/05/08 07:19:38;;;;;;;43.92;35.42;;;17.90;99.90;;;;;;4984524;28;20065;-72
2023/05/08 07:22:04;;;;;;;45.83;34.75;;;18.00;99.90;;;;;;4979721;28;20501;-72
2023/05/08 07:24:30;;;;;;;42.22;33.80;;;18.10;99.90;;;;;;4983692;28;20391;-72
2023/05/08 07:26:56;;;;;;;41.72;34.08;;;18.20;99.90;;;;;;4981855;28;20030;-73
2023/05/08 07:29:22;;;;;;;42.88;34.30;;;18.30;99.90;;;;;;4977646;28;20034;-74
2023/05/08 07:31:47;;;;;;;41.13;33.67;;;18.40;99.90;;;;;;4976421;28;20070;-73
2023/05/08 07:34:13;;;;;;;44.40;34.63;;;18.40;99.90;;;;;;4981192;28;20038;-73
2023/05/08 07:36:39;;;;;;;41.13;34.13;;;18.40;99.90;;;;;;4983748;28;20031;-73
2023/05/08 07:39:05;;;;;;;42.30;34.80;;;18.50;99.90;;;;;;4986466;28;20046;-74
2023/05/08 07:41:31;;;;;;;42.10;33.97;;;18.50;99.90;;;;;;4978939;28;20042;-73
2023/05/08 07:43:57;;;;;;;44.38;35.33;;;18.50;99.90;;;;;;4990681;28;20026;-74
2023/05/08 07:46:23;;;;;;;47.47;37.60;;;18.50;99.90;;;;;;4968554;28;20433;-74
2023/05/08 07:48:48;;;;;;;47.78;37.55;;;18.40;99.90;;;;;;4974461;28;20031;-73
2023/05/08 07:51:14;;;;;;;46.13;36.47;;;18.40;99.90;;;;;;4975477;28;20089;-72
2023/05/08 07:53:40;;;;;;;46.03;35.53;;;18.20;99.90;;;;;;4989939;28;20037;-73
2023/05/08 07:56:06;;;;;;;47.72;36.67;;;18.10;99.90;;;;;;4974197;28;20479;-73
2023/05/08 07:58:31;;;;;;;46.60;35.83;;;18.00;99.90;;;;;;4986590;28;20203;-73
2023/05/08 08:00:57;;;;;;;45.67;37.40;;;17.90;99.90;;;;;;4981899;28;20466;-73
2023/05/08 08:03:22;;;;;;;48.00;36.30;;;17.80;99.90;;;;;;4976442;28;20034;-73
2023/05/08 08:05:48;;;;;;;45.35;36.05;;;17.80;99.90;;;;;;4977998;28;20027;-73
2023/05/08 08:08:14;;;;;;;45.80;37.38;;;17.80;99.90;;;;;;4973399;28;20039;-73
2023/05/08 08:10:39;;;;;;;48.95;37.38;;;17.80;99.90;;;;;;4956221;28;20034;-72
2023/05/08 08:13:05;;;;;;;46.15;37.03;;;17.80;99.90;;;;;;4961759;28;20423;-73
2023/05/08 08:15:34;;;;;;;44.03;36.05;;;17.80;99.90;;;;;;4980697;28;20034;-72
2023/05/08 08:18:00;;;;;;;49.35;38.25;;;17.80;99.90;;;;;;4987617;28;20030;-73
2023/05/08 08:20:26;;;;;;;49.75;38.47;;;17.90;99.90;;;;;;4978845;28;20041;-73
2023/05/08 08:22:52;;;;;;;50.40;39.55;;;18.00;99.90;;;;;;4981469;28;20026;-73
2023/05/08 08:25:17;;;;;;;49.33;40.00;;;18.00;99.90;;;;;;4976104;28;20411;-73
2023/05/08 08:27:43;;;;;;;52.13;38.53;;;18.10;99.90;;;;;;4974525;28;20031;-73
2023/05/08 08:30:09;;;;;;;49.58;37.80;;;18.20;99.90;;;;;;4978781;28;20033;-73
2023/05/08 08:32:34;;;;;;;46.70;38.20;;;18.50;99.90;;;;;;4987901;28;20521;-73
2023/05/08 08:35:00;;;;;;;44.25;37.20;;;18.60;99.90;;;;;;4982809;28;20031;-73
2023/05/08 08:37:26;;;;;;;43.25;35.60;;;18.80;99.90;;;;;;4985941;28;20157;-73
2023/05/08 08:39:51;;;;;;;45.65;37.05;;;18.90;99.90;;;;;;4973593;28;20018;-73
2023/05/08 08:42:17;;;;;;;49.17;37.85;;;19.20;99.90;;;;;;4981260;28;20030;-73
2023/05/08 08:44:43;;;;;;;41.05;35.50;;;19.50;99.90;;;;;;4980932;28;20036;-73
2023/05/08 08:47:13;;;;;;;42.63;36.47;;;19.70;99.90;;;;;;4984215;28;20033;-73
2023/05/08 08:49:49;;;;;;;41.08;34.25;;;19.90;99.90;;;;;;4976618;28;20034;-73
2023/05/08 08:52:31;;;;;;;39.53;33.78;;;20.20;99.90;;;;;;4979548;28;20027;-73
2023/05/08 08:54:59;;;;;;;39.88;33.95;;;20.30;99.90;;;;;;4971435;28;20334;-73
2023/05/08 08:57:31;;;;;;;38.47;32.05;;;20.30;99.90;;;;;;4975824;28;20387;-73
2023/05/08 08:59:58;;;;;;;40.85;34.38;;;20.50;99.90;;;;;;4976381;28;20026;-73
2023/05/08 09:02:25;;;;;;;33.95;30.17;;;20.50;99.90;;;;;;4979978;28;20387;-73
2023/05/08 09:04:51;;;;;;;38.88;33.30;;;20.70;99.90;;;;;;4976565;28;20026;-73
2023/05/08 09:07:17;;;;;;;39.45;33.53;;;20.60;99.90;;;;;;4978204;28;20026;-74
2023/05/08 09:09:44;;;;;;;38.30;32.30;;;20.70;99.90;;;;;;4974225;28;20030;-73
2023/05/08 09:12:11;;;;;;;36.20;32.20;;;20.70;99.90;;;;;;4972334;28;20037;-73
2023/05/08 09:14:37;;;;;;;38.65;33.30;;;20.80;99.90;;;;;;4976762;28;20081;-73
2023/05/08 09:17:03;;;;;;;39.78;32.85;;;20.70;99.90;;;;;;4974666;28;20022;-73
2023/05/08 09:19:29;;;;;;;37.72;32.50;;;20.60;99.90;;;;;;4973029;28;20038;-73
2023/05/08 09:21:59;;;;;;;39.22;34.00;;;20.60;99.90;;;;;;4972080;28;20090;-74
2023/05/08 09:24:26;;;;;;;39.95;35.08;;;20.50;99.90;;;;;;4986100;28;20109;-73
2023/05/08 09:26:52;;;;;;;39.58;34.08;;;20.40;99.90;;;;;;4974797;28;20085;-73
2023/05/08 09:29:22;;;;;;;39.83;34.72;;;20.30;99.90;;;;;;4977023;28;20038;-73
2023/05/08 09:31:51;;;;;;;39.47;33.55;;;20.30;99.90;;;;;;4983345;28;20117;-73
2023/05/08 09:34:31;;;;;;;43.85;36.72;;;20.30;99.90;;;;;;4973327;28;20061;-73
2023/05/08 09:37:10;;;;;;;42.50;34.55;;;20.40;99.90;;;;;;4976326;28;20420;-73
2023/05/08 09:39:40;;;;;;;36.92;32.33;;;20.50;99.90;;;;;;4980244;28;20073;-73
2023/05/08 09:42:05;;;;;;;37.70;33.22;;;20.50;99.90;;;;;;4989308;28;20509;-73
2023/05/08 09:44:45;;;;;;;37.50;33.40;;;20.40;99.90;;;;;;4975438;28;20027;-73
2023/05/08 09:47:13;;;;;;;37.53;32.67;;;20.30;99.90;;;;;;4972325;28;20113;-73
2023/05/08 09:49:55;;;;;;;33.17;29.52;;;20.30;99.90;;;;;;4967439;28;20109;-75
2023/05/08 09:52:21;;;;;;;37.08;31.23;;;20.40;99.90;;;;;;4967543;28;20551;-75
2023/05/08 09:54:58;;;;;;;34.25;29.92;;;20.40;99.90;;;;;;4969886;28;20102;-75
2023/05/08 09:57:24;;;;;;;34.67;30.13;;;20.40;99.90;;;;;;4976806;28;20093;-75
2023/05/08 09:59:49;;;;;;;37.60;31.33;;;20.50;99.90;;;;;;4986409;28;20041;-76
2023/05/08 10:02:16;;;;;;;34.38;30.67;;;20.80;99.90;;;;;;4978165;28;20043;-75
2023/05/08 10:04:41;;;;;;;36.00;30.98;;;20.90;99.90;;;;;;4968774;28;20050;-75
2023/05/08 10:07:07;;;;;;;35.78;31.45;;;21.10;99.90;;;;;;4970551;28;20408;-76
2023/05/08 10:09:33;;;;;;;34.78;31.05;;;21.10;99.90;;;;;;4971325;28;20030;-75
2023/05/08 10:11:58;;;;;;;35.58;30.55;;;21.20;99.90;;;;;;4970714;28;20115;-75
2023/05/08 10:14:24;;;;;;;35.20;29.25;;;21.40;99.90;;;;;;4970807;28;20022;-76
2023/05/08 10:16:51;;;;;;;34.03;29.52;;;21.40;99.90;;;;;;4968760;28;20070;-75
2023/05/08 10:19:21;;;;;;;31.15;27.92;;;21.30;99.90;;;;;;4971378;28;20442;-75
2023/05/08 10:21:48;;;;;;;31.90;27.20;;;21.40;99.90;;;;;;4970826;28;20047;-75
2023/05/08 10:24:17;;;;;;;31.95;28.48;;;21.30;99.90;;;;;;4972030;28;20026;-76
2023/05/08 10:26:55;;;;;;;30.63;27.33;;;21.30;99.90;;;;;;4972216;28;20428;-76
2023/05/08 10:29:31;;;;;;;34.22;29.88;;;21.40;99.90;;;;;;4982628;28;20621;-75
2023/05/08 10:31:58;;;;;;;32.22;28.70;;;21.50;99.90;;;;;;4970561;28;20077;-75
2023/05/08 10:34:26;;;;;;;32.05;28.63;;;21.60;99.90;;;;;;4969113;28;20518;-75
2023/05/08 10:36:53;;;;;;;31.27;27.90;;;21.70;99.90;;;;;;4967794;28;20023;-75
2023/05/08 10:39:19;;;;;;;32.40;28.95;;;21.80;99.90;;;;;;4973487;28;20150;-75
2023/05/08 10:41:45;;;;;;;34.15;30.38;;;21.80;99.90;;;;;;4967691;28;20035;-75
2023/05/08 10:44:12;;;;;;;34.08;30.38;;;21.80;99.90;;;;;;4967667;28;20443;-75
2023/05/08 10:47:10;;;;;;;34.33;30.52;;;21.80;99.90;;;;;;4974747;28;20031;-75
2023/05/08 10:50:11;;;;;;;33.83;29.65;;;22.00;99.90;;;;;;4961306;28;20027;-75
2023/05/08 10:52:53;;;;;;;31.92;28.45;;;22.20;99.90;;;;;;4968785;28;20469;-75
2023/05/08 10:55:27;;;;;;;30.25;26.23;;;22.50;99.90;;;;;;4970013;28;20038;-75
2023/05/08 10:58:03;;;;;;;32.78;29.40;;;22.70;99.90;;;;;;4961447;28;20054;-75
2023/05/08 11:00:52;;;;;;;30.25;26.45;;;22.80;99.90;;;;;;4966994;28;20035;-75
2023/05/08 11:03:31;;;;;;;28.65;25.50;;;22.80;99.90;;;;;;4960231;28;20031;-75
2023/05/08 11:05:58;;;;;;;29.20;26.10;;;22.90;99.90;;;;;;4970455;28;20035;-75
2023/05/08 11:08:28;;;;;;;26.83;24.13;;;22.90;99.90;;;;;;4972670;28;20576;-75
2023/05/08 11:11:00;;;;;;;50.80;34.97;;;22.90;99.90;;;;;;4974233;28;20074;-75
2023/05/08 11:13:34;;;;;;;39.45;29.58;;;23.00;99.90;;;;;;4977530;28;20054;-75
2023/05/08 11:16:01;;;;;;;29.02;25.52;;;23.00;99.90;;;;;;4975552;28;20022;-75
2023/05/08 11:18:27;;;;;;;31.20;26.73;;;22.90;99.90;;;;;;4974545;28;20085;-75
2023/05/08 11:21:05;;;;;;;38.65;32.63;;;22.90;99.90;;;;;;4975524;28;20058;-75
2023/05/08 11:23:35;;;;;;;34.30;30.67;;;22.80;99.90;;;;;;4971817;28;20030;-75
2023/05/08 11:26:05;;;;;;;32.75;28.20;;;22.60;99.90;;;;;;4973010;28;20024;-75
2023/05/08 11:28:57;;;;;;;31.05;27.73;;;22.40;99.90;;;;;;4974004;28;20030;-75
2023/05/08 11:31:22;;;;;;;34.35;28.67;;;22.20;99.90;;;;;;4970927;28;20094;-75
2023/05/08 11:33:48;;;;;;;32.08;28.60;;;22.00;99.90;;;;;;4983395;28;20038;-75
2023/05/08 11:36:21;;;;;;;32.25;28.52;;;21.90;99.90;;;;;;4983407;28;20030;-75
2023/05/08 11:39:16;;;;;;;31.23;26.98;;;21.90;99.90;;;;;;4991618;28;20102;-76
2023/05/08 11:41:42;;;;;;;31.55;27.70;;;22.00;99.90;;;;;;4974791;28;20090;-75
2023/05/08 11:44:19;;;;;;;34.40;30.23;;;22.10;99.90;;;;;;4978595;28;20505;-75
2023/05/08 11:46:55;;;;;;;27.80;24.90;;;22.10;99.90;;;;;;4995060;28;20494;-74
2023/05/08 11:49:23;;;;;;;33.20;27.65;;;22.10;99.90;;;;;;4978178;28;20121;-76
2023/05/08 11:51:53;;;;;;;31.27;27.67;;;22.30;99.90;;;;;;4975239;28;20031;-75
2023/05/08 11:54:20;;;;;;;34.80;30.75;;;22.30;99.90;;;;;;4979079;28;20031;-75
2023/05/08 11:56:50;;;;;;;35.72;31.33;;;22.20;99.90;;;;;;4977886;28;20031;-75
2023/05/08 11:59:16;;;;;;;31.85;28.42;;;22.00;99.90;;;;;;4983938;28;20041;-75
2023/05/08 12:01:42;;;;;;;37.33;30.27;;;22.10;99.90;;;;;;4970055;28;20043;-75
2023/05/08 12:04:10;;;;;;;38.10;31.13;;;22.20;99.90;;;;;;4963861;28;20077;-74
2023/05/08 12:06:37;;;;;;;29.02;25.73;;;22.30;99.90;;;;;;4974963;28;20023;-76
2023/05/08 12:09:12;;;;;;;30.70;25.83;;;22.50;99.90;;;;;;4974547;28;20030;-74
2023/05/08 12:11:40;;;;;;;31.15;27.00;;;22.80;99.90;;;;;;4982943;28;20029;-75
2023/05/08 12:14:05;;;;;;;32.67;27.73;;;23.00;99.90;;;;;;4982924;28;20033;-76
2023/05/08 12:16:38;;;;;;;33.25;27.70;;;23.10;99.90;;;;;;4985941;28;20031;-76
2023/05/08 12:19:08;;;;;;;34.13;28.30;;;23.10;99.90;;;;;;4975264;28;20539;-74
2023/05/08 12:21:34;;;;;;;34.90;29.25;;;23.00;99.90;;;;;;4974571;28;20130;-74
2023/05/08 12:24:00;;;;;;;33.10;27.63;;;23.00;99.90;;;;;;4969397;28;20050;-74
2023/05/08 12:26:26;;;;;;;33.53;29.73;;;22.80;99.90;;;;;;4974179;28;20463;-73
2023/05/08 12:28:58;;;;;;;34.30;29.33;;;22.70;99.90;;;;;;4979967;28;20035;-75
2023/05/08 12:31:24;;;;;;;33.00;28.65;;;22.60;99.90;;;;;;4955233;28;20087;-75
2023/05/08 12:33:49;;;;;;;32.25;28.40;;;22.50;99.90;;;;;;4977279;28;20069;-75
2023/05/08 12:36:15;;;;;;;31.48;27.13;;;22.50;99.90;;;;;;4977451;28;20018;-75
2023/05/08 12:38:40;;;;;;;32.78;29.27;;;22.40;99.90;;;;;;4977524;28;20030;-72